createdAt,value
2019-03-15T00:01:13.496Z,99426.14
2019-03-15T00:03:45.269Z,99429.12
2019-03-15T00:06:16.184Z,99428.19
2019-03-15T00:08:47.083Z,99427.80
2019-03-15T00:11:18.049Z,99426.14
2019-03-15T00:13:48.929Z,99420.16
2019-03-15T00:16:19.903Z,99423.98
2019-03-15T00:18:50.828Z,99418.73
2019-03-15T00:21:21.740Z,99419.58
2019-03-15T00:23:52.629Z,99418.27
2019-03-15T00:26:23.586Z,99420.31
2019-03-15T00:28:54.484Z,99421.98
2019-03-15T00:31:25.420Z,99422.37
2019-03-15T00:33:56.311Z,99422.75
2019-03-15T00:36:27.236Z,99422.17
2019-03-15T00:38:59.176Z,99419.33
2019-03-15T00:41:30.123Z,99425.89
2019-03-15T00:44:01.027Z,99417.20
2019-03-15T00:46:31.950Z,99417.48
2019-03-15T00:49:02.836Z,99420.45
2019-03-15T00:51:41.653Z,99423.19
2019-03-15T00:54:06.361Z,99424.96
2019-03-15T00:56:37.408Z,99418.24
2019-03-15T00:59:08.300Z,99416.08
2019-03-15T01:01:39.234Z,99413.92
2019-03-15T01:04:10.123Z,99419.33
2019-03-15T01:06:41.048Z,99416.52
2019-03-15T01:09:11.936Z,99418.20
2019-03-15T01:11:45.701Z,99418.48
2019-03-15T01:14:16.788Z,99411.16
2019-03-15T01:16:47.717Z,99415.28
2019-03-15T01:19:18.606Z,99414.43
2019-03-15T01:21:49.547Z,99407.13
2019-03-15T01:24:20.428Z,99410.88
2019-03-15T01:26:52.205Z,99405.98
2019-03-15T01:29:23.100Z,99405.25
2019-03-15T01:31:54.015Z,99413.23
2019-03-15T01:34:24.898Z,99403.55
2019-03-15T01:36:55.834Z,99408.25
2019-03-15T01:39:26.712Z,99407.30
2019-03-15T01:41:58.550Z,99409.26
2019-03-15T01:44:29.449Z,99403.62
2019-03-15T01:47:00.367Z,99405.41
2019-03-15T01:49:31.271Z,99401.93
2019-03-15T01:52:02.194Z,99407.88
2019-03-15T01:54:33.086Z,99407.30
2019-03-15T01:57:05.877Z,99405.41
2019-03-15T01:59:36.789Z,99406.91
2019-03-15T02:02:07.777Z,99409.53
2019-03-15T02:04:38.665Z,99410.34
2019-03-15T02:07:09.660Z,99410.27
2019-03-15T02:09:40.559Z,99413.16
2019-03-15T02:12:11.582Z,99413.05
2019-03-15T02:14:42.401Z,99403.28
2019-03-15T02:17:13.324Z,99407.22
2019-03-15T02:19:44.215Z,99403.66
2019-03-15T02:22:15.133Z,99402.70
2019-03-15T02:24:46.032Z,99401.63
2019-03-15T02:27:17.810Z,99399.77
2019-03-15T02:29:48.778Z,99401.12
2019-03-15T02:32:19.689Z,99403.73
2019-03-15T02:34:50.575Z,99404.20
2019-03-15T02:37:21.486Z,99399.73
2019-03-15T02:39:52.451Z,99390.84
2019-03-15T02:42:26.221Z,99399.45
2019-03-15T02:44:55.992Z,99393.16
2019-03-15T02:47:26.915Z,99396.44
2019-03-15T02:49:57.809Z,99398.91
2019-03-15T02:52:28.730Z,99393.89
2019-03-15T02:54:59.548Z,99394.08
2019-03-15T02:57:31.340Z,99394.24
2019-03-15T03:00:02.232Z,99392.35
2019-03-15T03:02:33.156Z,99399.65
2019-03-15T03:05:08.378Z,99394.20
2019-03-15T03:07:39.276Z,99392.23
2019-03-15T03:10:10.373Z,99398.57
2019-03-15T03:12:42.110Z,99393.59
2019-03-15T03:15:13.011Z,99393.78
2019-03-15T03:17:43.928Z,99396.76
2019-03-15T03:20:14.820Z,99390.23
2019-03-15T03:22:45.751Z,99390.81
2019-03-15T03:25:17.353Z,99393.28
2019-03-15T03:27:49.571Z,99393.89
2019-03-15T03:30:20.504Z,99391.65
2019-03-15T03:32:51.429Z,99388.29
2019-03-15T03:35:22.321Z,99392.96
2019-03-15T03:37:53.228Z,99391.45
2019-03-15T03:40:24.117Z,99396.05
2019-03-15T03:42:55.064Z,99401.10
2019-03-15T03:45:25.957Z,99399.14
2019-03-15T03:47:57.801Z,99406.23
2019-03-15T03:50:28.806Z,99402.30
2019-03-15T03:52:59.699Z,99399.33
2019-03-15T03:55:30.679Z,99400.83
2019-03-15T03:58:02.389Z,99396.78
2019-03-15T04:00:33.414Z,99395.01
2019-03-15T04:03:04.335Z,99392.66
2019-03-15T04:05:35.227Z,99397.83
2019-03-15T04:08:06.160Z,99397.91
2019-03-15T04:10:37.050Z,99398.20
2019-03-15T04:13:07.986Z,99402.88
2019-03-15T04:15:38.945Z,99405.80
2019-03-15T04:18:09.884Z,99407.99
2019-03-15T04:20:45.836Z,99408.57
2019-03-15T04:23:14.045Z,99406.08
2019-03-15T04:25:44.934Z,99409.73
2019-03-15T04:28:16.631Z,99410.85
2019-03-15T04:30:47.532Z,99410.50
2019-03-15T04:33:18.447Z,99406.92
2019-03-15T04:35:52.777Z,99405.33
2019-03-15T04:38:23.708Z,99413.88
2019-03-15T04:40:54.602Z,99408.47
2019-03-15T04:43:25.595Z,99416.69
2019-03-15T04:45:57.062Z,99421.02
2019-03-15T04:48:27.983Z,99423.25
2019-03-15T04:50:58.870Z,99418.57
2019-03-15T04:53:29.781Z,99420.81
2019-03-15T04:56:00.684Z,99415.13
2019-03-15T04:58:32.365Z,99420.64
2019-03-15T05:01:03.271Z,99423.92
2019-03-15T05:03:34.187Z,99428.03
2019-03-15T05:06:05.078Z,99424.65
2019-03-15T05:08:35.995Z,99422.78
2019-03-15T05:11:06.893Z,99420.27
2019-03-15T05:13:37.835Z,99420.56
2019-03-15T05:16:08.721Z,99426.84
2019-03-15T05:18:39.669Z,99423.65
2019-03-15T05:21:10.576Z,99428.32
2019-03-15T05:23:41.497Z,99430.65
2019-03-15T05:26:12.394Z,99429.97
2019-03-15T05:28:44.174Z,99433.72
2019-03-15T05:31:15.063Z,99429.59
2019-03-15T05:33:45.985Z,99436.32
2019-03-15T05:36:16.916Z,99429.30
2019-03-15T05:38:47.795Z,99430.50
2019-03-15T05:41:18.681Z,99439.50
2019-03-15T05:43:52.934Z,99432.02
2019-03-15T05:46:22.259Z,99436.02
2019-03-15T05:48:53.264Z,99436.69
2019-03-15T05:51:24.305Z,99440.95
2019-03-15T05:54:01.850Z,99435.33
2019-03-15T05:56:32.879Z,99437.34
2019-03-15T05:59:04.865Z,99443.03
2019-03-15T06:01:35.848Z,99441.58
2019-03-15T06:04:06.900Z,99445.40
2019-03-15T06:06:37.919Z,99437.37
2019-03-15T06:09:09.005Z,99435.09
2019-03-15T06:11:39.976Z,99441.97
2019-03-15T06:14:11.040Z,99441.27
2019-03-15T06:16:41.989Z,99441.48
2019-03-15T06:19:13.033Z,99434.86
2019-03-15T06:21:44.029Z,99442.20
2019-03-15T06:24:15.098Z,99442.14
2019-03-15T06:26:47.649Z,99445.77
2019-03-15T06:29:19.173Z,99449.42
2019-03-15T06:31:51.056Z,99452.98
2019-03-15T06:34:22.082Z,99453.98
2019-03-15T06:36:53.053Z,99453.95
2019-03-15T06:39:24.109Z,99448.44
2019-03-15T06:41:55.063Z,99449.45
2019-03-15T06:44:27.179Z,99454.30
2019-03-15T06:46:58.450Z,99459.34
2019-03-15T06:49:29.460Z,99454.44
2019-03-15T06:52:00.430Z,99458.05
2019-03-15T06:54:31.521Z,99454.48
2019-03-15T06:57:28.435Z,99460.14
2019-03-15T06:59:38.151Z,99447.30
2019-03-15T07:02:09.167Z,99450.13
2019-03-15T07:04:40.237Z,99443.60
2019-03-15T07:07:15.157Z,99443.34
2019-03-15T07:09:46.153Z,99443.84
2019-03-15T07:12:17.153Z,99439.66
2019-03-15T07:14:48.290Z,99439.36
2019-03-15T07:17:19.363Z,99439.69
2019-03-15T07:19:51.390Z,99435.91
2019-03-15T07:22:22.469Z,99438.59
2019-03-15T07:24:53.468Z,99447.03
2019-03-15T07:27:24.535Z,99453.23
2019-03-15T07:29:59.818Z,99449.03
2019-03-15T07:32:29.351Z,99456.55
2019-03-15T07:35:00.310Z,99460.13
2019-03-15T07:37:31.391Z,99455.80
2019-03-15T07:40:02.360Z,99453.63
2019-03-15T07:42:33.421Z,99451.13
2019-03-15T07:45:07.471Z,99450.78
2019-03-15T07:47:39.587Z,99453.92
2019-03-15T07:50:14.958Z,99452.23
2019-03-15T07:52:45.999Z,99449.76
2019-03-15T07:55:16.987Z,99450.13
2019-03-15T07:57:48.005Z,99446.91
2019-03-15T08:00:19.227Z,99450.17
2019-03-15T08:02:50.330Z,99447.53
2019-03-15T08:05:21.330Z,99448.73
2019-03-15T08:07:53.957Z,99446.91
2019-03-15T08:10:25.043Z,99453.11
2019-03-15T08:12:58.637Z,99452.09
2019-03-15T08:15:31.356Z,99454.95
2019-03-15T08:18:02.304Z,99458.08
2019-03-15T08:20:40.398Z,99459.81
2019-03-15T08:23:08.472Z,99454.60
2019-03-15T08:25:38.538Z,99454.38
2019-03-15T08:28:09.422Z,99459.31
2019-03-15T08:30:41.984Z,99458.98
2019-03-15T08:33:12.868Z,99456.97
2019-03-15T08:35:43.760Z,99459.95
2019-03-15T08:38:14.664Z,99464.70
2019-03-15T08:40:45.572Z,99462.49
2019-03-15T08:43:16.464Z,99454.72
2019-03-15T08:45:47.419Z,99452.61
2019-03-15T08:48:18.300Z,99461.39
2019-03-15T08:50:49.243Z,99464.75
2019-03-15T08:53:20.140Z,99461.64
2019-03-15T08:55:51.045Z,99471.94
2019-03-15T08:58:22.555Z,99466.77
2019-03-15T09:00:54.560Z,99473.38
2019-03-15T09:03:28.194Z,99481.20
2019-03-15T09:05:58.035Z,99468.34
2019-03-15T09:08:29.701Z,99476.85
2019-03-15T09:11:00.616Z,99472.50
2019-03-15T09:13:31.488Z,99478.84
2019-03-15T09:16:02.542Z,99480.50
2019-03-15T09:18:33.408Z,99473.75
2019-03-15T09:21:04.307Z,99481.18
2019-03-15T09:23:35.185Z,99473.28
2019-03-15T09:26:06.102Z,99471.97
2019-03-15T09:28:36.981Z,99471.84
2019-03-15T09:31:07.929Z,99467.25
2019-03-15T09:33:38.813Z,99465.22
2019-03-15T09:36:09.730Z,99463.25
2019-03-15T09:38:40.526Z,99464.97
2019-03-15T09:41:11.449Z,99468.22
2019-03-15T09:43:45.244Z,99467.03
2019-03-15T09:46:14.944Z,99460.48
2019-03-15T09:48:45.764Z,99463.98
2019-03-15T09:51:16.683Z,99461.70
2019-03-15T09:53:47.578Z,99464.78
2019-03-15T09:56:18.488Z,99465.66
2019-03-15T09:58:49.388Z,99464.78
2019-03-15T10:01:34.189Z,99466.15
2019-03-15T10:03:53.775Z,99465.09
2019-03-15T10:06:26.143Z,99464.38
2019-03-15T10:08:57.931Z,99460.67
2019-03-15T10:11:28.862Z,99462.95
2019-03-15T10:14:02.177Z,99453.49
2019-03-15T10:16:32.388Z,99453.13
2019-03-15T10:19:03.351Z,99453.38
2019-03-15T10:21:34.272Z,99447.13
2019-03-15T10:24:05.175Z,99447.02
2019-03-15T10:26:36.122Z,99447.13
2019-03-15T10:29:15.226Z,99447.73
2019-03-15T10:31:40.554Z,99446.89
2019-03-15T10:34:11.453Z,99448.32
2019-03-15T10:36:42.379Z,99450.59
2019-03-15T10:39:13.276Z,99451.91
2019-03-15T10:41:44.274Z,99455.44
2019-03-15T10:44:15.186Z,99455.42
2019-03-15T10:46:46.924Z,99448.84
2019-03-15T10:49:17.850Z,99451.13
2019-03-15T10:51:48.803Z,99457.36
2019-03-15T10:54:19.719Z,99442.98
2019-03-15T10:56:50.630Z,99445.27
2019-03-15T10:59:21.514Z,99446.38
2019-03-15T11:01:52.472Z,99448.56
2019-03-15T11:04:23.389Z,99451.16
2019-03-15T11:06:54.287Z,99452.69
2019-03-15T11:09:26.067Z,99455.92
2019-03-15T11:11:56.975Z,99450.05
2019-03-15T11:14:27.863Z,99450.89
2019-03-15T11:16:59.705Z,99457.38
2019-03-15T11:19:30.591Z,99455.80
2019-03-15T11:22:06.883Z,99458.67
2019-03-15T11:24:37.756Z,99460.83
2019-03-15T11:27:08.673Z,99463.34
2019-03-15T11:29:39.549Z,99466.46
2019-03-15T11:32:11.289Z,99468.84
2019-03-15T11:34:42.164Z,99466.78
2019-03-15T11:37:13.080Z,99459.92
2019-03-15T11:39:43.955Z,99466.26
2019-03-15T11:42:15.143Z,99471.88
2019-03-15T11:44:46.014Z,99470.71
2019-03-15T11:47:16.965Z,99470.02
2019-03-15T11:49:47.876Z,99469.92
2019-03-15T11:52:18.764Z,99474.94
2019-03-15T11:54:50.022Z,99483.44
2019-03-15T11:57:21.118Z,99483.06
2019-03-15T11:59:52.007Z,99483.03
2019-03-15T12:02:23.861Z,99477.42
2019-03-15T12:04:54.736Z,99482.78
2019-03-15T12:07:25.640Z,99483.54
2019-03-15T12:10:00.641Z,99486.64
2019-03-15T12:12:31.559Z,99490.59
2019-03-15T12:15:02.448Z,99486.95
2019-03-15T12:17:34.159Z,99483.47
2019-03-15T12:20:07.744Z,99495.76
2019-03-15T12:22:38.659Z,99487.64
2019-03-15T12:25:10.636Z,99490.27
2019-03-15T12:27:41.541Z,99482.59
2019-03-15T12:30:17.074Z,99487.14
2019-03-15T12:32:48.886Z,99486.88
2019-03-15T12:35:19.786Z,99483.69
2019-03-15T12:37:50.711Z,99481.31
2019-03-15T12:40:21.613Z,99481.10
2019-03-15T12:42:52.536Z,99482.03
2019-03-15T12:45:23.437Z,99484.58
2019-03-15T12:47:55.192Z,99477.23
2019-03-15T12:50:26.088Z,99484.16
2019-03-15T12:52:56.996Z,99480.80
2019-03-15T12:55:27.875Z,99483.66
2019-03-15T12:57:58.866Z,99474.30
2019-03-15T13:00:29.738Z,99472.86
2019-03-15T13:03:01.577Z,99473.70
2019-03-15T13:05:32.464Z,99461.66
2019-03-15T13:08:03.374Z,99476.59
2019-03-15T13:10:35.042Z,99477.53
2019-03-15T13:13:05.945Z,99481.78
2019-03-15T13:15:38.874Z,99475.75
2019-03-15T13:18:09.811Z,99475.91
2019-03-15T13:20:40.690Z,99476.55
2019-03-15T13:23:11.608Z,99471.63
2019-03-15T13:25:42.490Z,99467.47
2019-03-15T13:28:13.408Z,99468.57
2019-03-15T13:30:44.294Z,99459.10
2019-03-15T13:33:20.760Z,99461.44
2019-03-15T13:35:48.694Z,99462.38
2019-03-15T13:38:19.544Z,99465.81
2019-03-15T13:40:50.451Z,99469.03
2019-03-15T13:43:21.361Z,99461.30
2019-03-15T13:45:52.277Z,99470.46
2019-03-15T13:48:24.009Z,99472.52
2019-03-15T13:50:54.897Z,99468.23
2019-03-15T13:53:25.802Z,99460.87
2019-03-15T13:55:56.694Z,99470.22
2019-03-15T13:58:27.624Z,99467.78
2019-03-15T14:00:58.504Z,99456.06
2019-03-15T14:03:30.254Z,99467.97
2019-03-15T14:06:01.160Z,99467.30
2019-03-15T14:08:32.078Z,99463.77
2019-03-15T14:11:03.910Z,99466.31
2019-03-15T14:13:34.850Z,99466.95
2019-03-15T14:16:05.747Z,99468.27
2019-03-15T14:18:37.542Z,99467.12
2019-03-15T14:21:08.432Z,99468.61
2019-03-15T14:23:39.354Z,99458.88
2019-03-15T14:26:10.294Z,99448.81
2019-03-15T14:28:41.220Z,99465.39
2019-03-15T14:31:12.103Z,99462.80
2019-03-15T14:33:44.635Z,99462.48
2019-03-15T14:36:17.091Z,99471.11
2019-03-15T14:38:48.227Z,99468.53
2019-03-15T14:41:19.319Z,99468.30
2019-03-15T14:43:52.795Z,99466.68
2019-03-15T14:46:23.616Z,99464.83
2019-03-15T14:48:55.526Z,99451.27
2019-03-15T14:51:26.418Z,99440.84
2019-03-15T14:53:57.340Z,99431.48
2019-03-15T14:56:28.218Z,99434.05
2019-03-15T14:59:00.096Z,99425.58
2019-03-15T15:01:31.001Z,99427.86
2019-03-15T15:04:02.758Z,99421.14
2019-03-15T15:06:33.658Z,99414.27
2019-03-15T15:09:06.197Z,99407.11
2019-03-15T15:11:37.970Z,99399.84
2019-03-15T15:14:08.901Z,99397.80
2019-03-15T15:16:39.791Z,99396.11
2019-03-15T15:19:14.100Z,99386.63
2019-03-15T15:21:44.152Z,99382.58
2019-03-15T15:24:15.094Z,99379.42
2019-03-15T15:26:45.984Z,99375.48
2019-03-15T15:29:16.895Z,99372.85
2019-03-15T15:31:47.780Z,99381.31
2019-03-15T15:34:19.541Z,99369.70
2019-03-15T15:36:55.740Z,99365.12
2019-03-15T15:39:23.053Z,99351.98
2019-03-15T15:41:53.946Z,99356.77
2019-03-15T15:44:24.871Z,99356.30
2019-03-15T15:46:55.754Z,99355.16
2019-03-15T15:49:26.736Z,99344.16
2019-03-15T15:51:57.697Z,99325.58
2019-03-15T15:54:30.672Z,99326.16
2019-03-15T15:57:01.563Z,99316.77
2019-03-15T15:59:32.480Z,99317.41
2019-03-15T16:02:03.365Z,99311.19
2019-03-15T16:04:34.313Z,99313.93
2019-03-15T16:07:05.202Z,99306.78
2019-03-15T16:09:36.112Z,99306.89
2019-03-15T16:12:07.003Z,99305.94
2019-03-15T16:14:37.920Z,99302.95
2019-03-15T16:17:08.815Z,99289.33
2019-03-15T16:19:39.822Z,99293.70
2019-03-15T16:22:10.688Z,99288.52
2019-03-15T16:24:41.619Z,99283.38
2019-03-15T16:27:12.588Z,99275.91
2019-03-15T16:29:43.508Z,99273.72
2019-03-15T16:32:14.415Z,99273.48
2019-03-15T16:34:46.984Z,99264.83
2019-03-15T16:37:17.891Z,99252.80
2019-03-15T16:39:48.813Z,99244.61
2019-03-15T16:42:19.706Z,99243.56
2019-03-15T16:44:50.649Z,99233.91
2019-03-15T16:47:21.539Z,99231.92
2019-03-15T16:49:54.343Z,99238.95
2019-03-15T16:52:25.243Z,99239.87
2019-03-15T16:54:56.176Z,99235.80
2019-03-15T16:57:27.073Z,99234.87
2019-03-15T16:59:57.997Z,99225.30
2019-03-15T17:02:28.893Z,99220.43
2019-03-15T17:05:00.687Z,99212.17
2019-03-15T17:07:31.569Z,99213.10
2019-03-15T17:10:05.073Z,99202.28
2019-03-15T17:12:35.970Z,99191.05
2019-03-15T17:15:12.549Z,99179.15
2019-03-15T17:17:43.437Z,99172.34
2019-03-15T17:20:15.449Z,99163.53
2019-03-15T17:22:46.382Z,99156.50
2019-03-15T17:25:17.400Z,99159.34
2019-03-15T17:27:48.287Z,99153.77
2019-03-15T17:30:19.220Z,99139.78
2019-03-15T17:32:50.173Z,99132.03
2019-03-15T17:35:22.663Z,99125.54
2019-03-15T17:37:53.558Z,99114.83
2019-03-15T17:40:24.495Z,99106.58
2019-03-15T17:42:55.464Z,99092.34
2019-03-15T17:45:26.393Z,99079.54
2019-03-15T17:47:58.384Z,99066.62
2019-03-15T17:50:30.194Z,99071.42
2019-03-15T17:53:01.088Z,99060.20
2019-03-15T17:55:32.017Z,99048.98
2019-03-15T17:58:02.914Z,99041.62
2019-03-15T18:00:41.535Z,99031.20
2019-03-15T18:03:20.724Z,99028.58
2019-03-15T18:05:46.074Z,99018.45
2019-03-15T18:08:16.988Z,99005.17
2019-03-15T18:10:47.921Z,98998.98
2019-03-15T18:13:19.743Z,98984.64
2019-03-15T18:15:50.671Z,98974.56
2019-03-15T18:18:21.570Z,98963.26
2019-03-15T18:20:53.344Z,98955.85
2019-03-15T18:23:24.243Z,98946.88
2019-03-15T18:25:55.173Z,98943.03
2019-03-15T18:28:26.076Z,98938.88
2019-03-15T18:30:59.257Z,98923.14
2019-03-15T18:33:30.966Z,98913.45
2019-03-15T18:36:02.769Z,98903.76
2019-03-15T18:38:33.666Z,98890.91
2019-03-15T18:41:04.687Z,98871.48
2019-03-15T18:43:35.585Z,98861.70
2019-03-15T18:46:08.310Z,98854.90
2019-03-15T18:48:39.200Z,98831.26
2019-03-15T18:51:10.955Z,98830.41
2019-03-15T18:53:41.837Z,98818.45
2019-03-15T18:56:14.742Z,98813.11
2019-03-15T18:58:45.348Z,98804.66
2019-03-15T19:01:16.256Z,98787.36
2019-03-15T19:03:47.136Z,98784.73
2019-03-15T19:06:19.057Z,98781.20
2019-03-15T19:08:49.942Z,98774.42
2019-03-15T19:11:20.862Z,98776.10
2019-03-15T19:13:53.450Z,98758.95
2019-03-15T19:16:24.372Z,98740.71
2019-03-15T19:18:55.265Z,98731.41
2019-03-15T19:21:27.801Z,98738.19
2019-03-15T19:23:58.771Z,98739.12
2019-03-15T19:26:29.680Z,98738.78
2019-03-15T19:29:00.570Z,98721.63
2019-03-15T19:31:31.486Z,98721.26
2019-03-15T19:34:02.389Z,98720.06
2019-03-15T19:36:36.075Z,98714.47
2019-03-15T19:39:07.183Z,98710.63
2019-03-15T19:41:38.101Z,98702.29
2019-03-15T19:44:08.980Z,98705.28
2019-03-15T19:46:39.897Z,98699.55
2019-03-15T19:49:10.874Z,98689.55
2019-03-15T19:51:42.208Z,98696.45
2019-03-15T19:54:13.102Z,98680.57
2019-03-15T19:56:44.123Z,98687.48
2019-03-15T19:59:15.021Z,98688.84
2019-03-15T20:01:46.005Z,98677.50
2019-03-15T20:04:16.903Z,98669.27
2019-03-15T20:06:49.883Z,98670.81
2019-03-15T20:09:20.593Z,98661.05
2019-03-15T20:11:51.501Z,98643.02
2019-03-15T20:14:23.988Z,98643.53
2019-03-15T20:16:54.908Z,98648.28
2019-03-15T20:19:25.875Z,98640.28
2019-03-15T20:21:57.701Z,98642.92
2019-03-15T20:24:28.581Z,98627.89
2019-03-15T20:26:59.481Z,98622.88
2019-03-15T20:29:30.389Z,98620.25
2019-03-15T20:32:01.453Z,98611.08
2019-03-15T20:34:32.332Z,98603.58
2019-03-15T20:37:03.296Z,98589.98
2019-03-15T20:39:34.186Z,98590.31
2019-03-15T20:42:05.197Z,98583.52
2019-03-15T20:44:36.081Z,98581.28
2019-03-15T20:47:09.076Z,98583.52
2019-03-15T20:49:40.517Z,98576.03
2019-03-15T20:52:11.565Z,98561.00
2019-03-15T20:54:42.460Z,98559.08
2019-03-15T20:57:13.370Z,98548.59
2019-03-15T20:59:44.670Z,98556.58
2019-03-15T21:02:18.431Z,98548.34
2019-03-15T21:04:49.642Z,98546.93
2019-03-15T21:07:21.444Z,98552.28
2019-03-15T21:09:52.337Z,98545.48
2019-03-15T21:12:23.261Z,98535.36
2019-03-15T21:14:55.728Z,98539.06
2019-03-15T21:17:26.652Z,98527.38
2019-03-15T21:20:00.715Z,98520.12
2019-03-15T21:22:33.527Z,98528.09
2019-03-15T21:25:04.875Z,98514.52
2019-03-15T21:27:38.251Z,98508.55
2019-03-15T21:30:16.962Z,98500.92
2019-03-15T21:32:47.948Z,98511.28
2019-03-15T21:35:18.830Z,98495.31
2019-03-15T21:37:50.833Z,98492.55
2019-03-15T21:40:22.607Z,98490.64
2019-03-15T21:42:53.527Z,98491.37
2019-03-15T21:45:25.013Z,98474.05
2019-03-15T21:47:56.012Z,98471.33
2019-03-15T21:50:26.899Z,98466.45
2019-03-15T21:52:57.837Z,98479.80
2019-03-15T21:55:28.738Z,98476.95
2019-03-15T21:57:59.637Z,98476.58
2019-03-15T22:00:30.526Z,98476.98
2019-03-15T22:03:01.440Z,98476.84
2019-03-15T22:05:32.329Z,98473.28
2019-03-15T22:08:03.258Z,98464.10
2019-03-15T22:10:34.146Z,98461.74
2019-03-15T22:13:05.065Z,98443.73
2019-03-15T22:15:36.886Z,98431.69
2019-03-15T22:18:09.481Z,98430.05
2019-03-15T22:20:40.363Z,98419.81
2019-03-15T22:23:12.962Z,98425.87
2019-03-15T22:25:43.914Z,98417.42
2019-03-15T22:28:14.826Z,98413.39
2019-03-15T22:30:45.721Z,98403.48
2019-03-15T22:33:17.358Z,98406.71
2019-03-15T22:35:48.232Z,98386.58
2019-03-15T22:38:26.283Z,98394.47
2019-03-15T22:40:52.596Z,98391.61
2019-03-15T22:43:23.510Z,98385.63
2019-03-15T22:45:54.397Z,98377.77
2019-03-15T22:48:25.316Z,98379.47
2019-03-15T22:50:56.200Z,98375.31
2019-03-15T22:53:27.160Z,98368.28
2019-03-15T22:55:58.040Z,98358.98
2019-03-15T22:58:28.950Z,98354.81
2019-03-15T23:00:59.823Z,98353.38
2019-03-15T23:03:30.805Z,98357.33
2019-03-15T23:06:01.691Z,98357.91
2019-03-15T23:08:33.433Z,98342.22
2019-03-15T23:11:04.488Z,98347.69
2019-03-15T23:13:35.399Z,98348.39
2019-03-15T23:16:06.284Z,98345.20
2019-03-15T23:18:38.249Z,98343.18
2019-03-15T23:21:09.056Z,98333.30
2019-03-15T23:23:40.824Z,98341.76
2019-03-15T23:26:11.714Z,98334.02
2019-03-15T23:28:42.716Z,98335.92
2019-03-15T23:31:13.593Z,98333.31
2019-03-15T23:33:44.496Z,98334.26
2019-03-15T23:36:15.372Z,98332.00
2019-03-15T23:38:46.330Z,98326.16
2019-03-15T23:41:17.212Z,98332.11
2019-03-15T23:43:48.124Z,98328.18
2019-03-15T23:46:19.018Z,98330.69
2019-03-15T23:48:49.937Z,98332.93
2019-03-15T23:51:20.824Z,98331.25
2019-03-15T23:53:52.601Z,98327.19
2019-03-15T23:56:23.480Z,98320.41
2019-03-15T23:58:54.457Z,98321.81
